Terminal Aerodrome Forecast
Issued by NWS

Home | Current Version | Previous Version | Text Only | Print | Product List | Glossary On
Versions: 1 2 3 4 5 6 7 8 9 10 11 12 13 14 15 16 17 18 19 20 21 22 23 24 25 26 27
000
FTUS46 KLOX 172300 RRA
TAFSBP
TAF
KSBP 172350Z 1800/1824 30006KT P6SM -SHRA SCT025 BKN050
     FM180500 VRB03KT 6SM -RA BR BKN025 OVC040
      TEMPO 1809/1811 5SM RA BR OVC012
     FM181500 32008KT P6SM VCSH BKN025 BKN050=

USA.gov is the U.S. government's official web portal to all federal, state and local government web resources and services.